Ashland, Louisiana
Current Conditions -  °F | °C
As of 11:55 PM on Saturday 22 Nov 2014 (Local Time) from KIER Reporting Station
Overcast Overcast  
Wind Chill: 64°   Ceiling: 1000
Heat Index: 64°   Visibility: 10mi
Dew Point: 62°   Wind: 13mph
Humidity: 94%   Direction: 150°SSE
Pressure: 29.78"   Gusts: 16mph
Location:  32.14°N, 93.1°W
Report Text: KIER 230555Z AUTO 15011G14KT 10SM OVC010 18/17 A2978 RMK AO2 60001 T01750166 10183 20168 402170126
Loading
Personal Weather Stations






























Interactive Weather Map New forecast layout! Learn more

10-Day Weather Forecast

Advertisements
Track Severe Weather on mobile